createdAt,value
2019-03-23T00:04:51.733Z,407.95
2019-03-23T00:10:01.992Z,287.20
2019-03-23T00:15:09.407Z,316.30
2019-03-23T00:20:22.571Z,377.55
2019-03-23T00:25:27.864Z,399.75
2019-03-23T00:30:38.122Z,320.20
2019-03-23T00:35:43.572Z,303.00
2019-03-23T00:40:51.773Z,346.37
2019-03-23T00:45:56.744Z,286.92
2019-03-23T00:51:02.006Z,333.05
2019-03-23T00:56:16.480Z,310.90
2019-03-23T01:01:21.813Z,327.70
2019-03-23T01:06:30.586Z,294.85
2019-03-23T01:11:37.125Z,358.75
2019-03-23T01:16:46.508Z,285.95
2019-03-23T01:21:51.939Z,277.05
2019-03-23T01:27:00.056Z,279.23
2019-03-23T01:32:04.231Z,467.10
2019-03-23T01:37:16.177Z,480.10
2019-03-23T01:42:20.371Z,516.35
2019-03-23T01:47:26.405Z,600.87
2019-03-23T01:52:31.067Z,466.80
2019-03-23T01:57:41.185Z,313.77
2019-03-23T02:02:49.106Z,319.27
2019-03-23T02:07:54.812Z,264.45
2019-03-23T02:12:59.473Z,295.75
2019-03-23T02:18:04.536Z,332.60
2019-03-23T02:23:08.801Z,288.10
2019-03-23T02:28:13.293Z,280.50
2019-03-23T02:33:17.702Z,242.53
2019-03-23T02:38:21.838Z,269.35
2019-03-23T02:43:27.560Z,279.45
2019-03-23T02:48:31.663Z,195.45
2019-03-23T02:53:36.116Z,187.60
2019-03-23T02:58:40.592Z,165.90
2019-03-23T03:03:47.913Z,178.40
2019-03-23T03:13:56.399Z,156.55
2019-03-23T03:19:00.553Z,162.12
2019-03-23T03:24:04.639Z,156.67
2019-03-23T03:29:09.032Z,162.10
2019-03-23T03:34:14.603Z,168.30
2019-03-23T03:39:19.195Z,170.65
2019-03-23T03:44:25.245Z,181.80
2019-03-23T03:49:29.921Z,172.20
2019-03-23T03:54:34.036Z,146.57
2019-03-23T03:59:38.980Z,189.97
2019-03-23T04:04:43.157Z,199.87
2019-03-23T04:09:47.280Z,208.35
2019-03-23T04:14:51.402Z,186.45
2019-03-23T04:19:56.742Z,173.87
2019-03-23T04:25:02.081Z,113.47
2019-03-23T04:30:06.990Z,94.62
2019-03-23T04:35:11.695Z,85.62
2019-03-23T04:40:15.816Z,74.35
2019-03-23T04:45:20.170Z,82.55
2019-03-23T04:50:24.798Z,86.02
2019-03-23T04:55:29.939Z,98.72
2019-03-23T05:00:36.243Z,94.67
2019-03-23T05:05:40.746Z,105.93
2019-03-23T05:10:45.265Z,87.50
2019-03-23T05:15:49.365Z,94.92
2019-03-23T05:20:53.799Z,95.42
2019-03-23T05:25:57.983Z,96.75
2019-03-23T05:31:02.188Z,86.97
2019-03-23T05:36:06.628Z,88.55
2019-03-23T05:41:10.871Z,93.92
2019-03-23T05:46:16.205Z,92.92
2019-03-23T05:51:20.769Z,89.10
2019-03-23T05:56:26.685Z,88.30
2019-03-23T06:01:30.831Z,82.57
2019-03-23T06:06:35.968Z,87.62
2019-03-23T06:11:40.956Z,83.33
2019-03-23T06:16:45.434Z,74.40
2019-03-23T06:21:49.960Z,74.60
2019-03-23T06:26:54.209Z,84.92
2019-03-23T06:31:58.613Z,78.65
2019-03-23T06:37:03.403Z,74.82
2019-03-23T06:42:07.920Z,78.15
2019-03-23T06:47:12.029Z,73.90
2019-03-23T06:52:18.165Z,79.10
2019-03-23T06:57:22.419Z,71.37
2019-03-23T07:02:28.363Z,73.20
2019-03-23T07:07:34.681Z,79.65
2019-03-23T07:12:39.724Z,80.70
2019-03-23T07:17:44.200Z,88.05
2019-03-23T07:22:48.774Z,88.72
2019-03-23T07:27:53.261Z,83.67
2019-03-23T07:32:58.099Z,85.05
2019-03-23T07:38:02.902Z,81.70
2019-03-23T07:43:08.106Z,79.05
2019-03-23T07:48:12.876Z,82.27
2019-03-23T07:53:17.715Z,88.12
2019-03-23T07:58:22.088Z,90.47
2019-03-23T08:03:27.037Z,83.10
2019-03-23T08:08:31.132Z,74.60
2019-03-23T08:13:36.074Z,77.03
2019-03-23T08:18:40.196Z,78.22
2019-03-23T08:23:45.803Z,83.00
2019-03-23T08:28:49.979Z,69.77
2019-03-23T08:33:54.197Z,72.72
2019-03-23T08:38:58.667Z,74.90
2019-03-23T08:44:02.914Z,67.97
2019-03-23T08:49:09.282Z,69.20
2019-03-23T08:54:13.452Z,70.83
2019-03-23T08:59:17.819Z,62.15
2019-03-23T09:04:22.776Z,67.67
2019-03-23T09:09:29.175Z,64.07
2019-03-23T09:14:33.710Z,53.60
2019-03-23T09:19:38.575Z,46.73
2019-03-23T09:24:42.675Z,41.53
2019-03-23T09:29:47.415Z,48.45
2019-03-23T09:34:52.122Z,42.15
2019-03-23T09:39:58.609Z,40.20
2019-03-23T09:45:02.986Z,41.27
2019-03-23T09:50:07.782Z,42.33
2019-03-23T09:55:12.193Z,38.65
2019-03-23T10:00:16.381Z,37.33
2019-03-23T10:05:22.279Z,37.17
2019-03-23T10:10:28.022Z,36.70
2019-03-23T10:15:32.946Z,39.08
2019-03-23T10:20:37.430Z,36.13
2019-03-23T10:25:42.431Z,32.88
2019-03-23T10:30:46.757Z,38.65
2019-03-23T10:35:53.502Z,37.45
2019-03-23T10:46:04.152Z,40.28
2019-03-23T10:51:09.294Z,35.58
2019-03-23T10:56:13.689Z,31.40
2019-03-23T11:01:17.819Z,34.90
2019-03-23T11:06:24.785Z,34.30
2019-03-23T11:11:31.007Z,32.78
2019-03-23T11:16:35.402Z,30.48
2019-03-23T11:21:40.304Z,35.60
2019-03-23T11:26:44.648Z,36.42
2019-03-23T11:31:49.048Z,33.33
2019-03-23T11:36:55.299Z,36.88
2019-03-23T11:42:02.237Z,34.43
2019-03-23T11:47:06.374Z,26.97
2019-03-23T11:52:10.652Z,33.28
2019-03-23T11:57:15.120Z,24.65
2019-03-23T12:02:19.447Z,26.37
2019-03-23T12:07:23.597Z,30.55
2019-03-23T12:12:28.569Z,25.57
2019-03-23T12:17:32.772Z,25.05
2019-03-23T12:22:37.115Z,26.45
2019-03-23T12:27:42.550Z,28.17
2019-03-23T12:32:47.388Z,26.65
2019-03-23T12:37:51.514Z,26.27
2019-03-23T12:42:57.242Z,25.92
2019-03-23T12:48:02.464Z,24.30
2019-03-23T12:53:08.379Z,19.95
2019-03-23T12:58:12.474Z,18.02
2019-03-23T13:03:16.573Z,18.95
2019-03-23T13:08:21.947Z,18.27
2019-03-23T13:13:26.876Z,15.55
2019-03-23T13:18:31.040Z,20.75
2019-03-23T13:23:36.047Z,21.05
2019-03-23T13:28:40.553Z,19.12
2019-03-23T13:33:44.691Z,22.27
2019-03-23T13:38:48.987Z,19.50
2019-03-23T13:43:53.074Z,15.20
2019-03-23T13:48:57.487Z,17.85
2019-03-23T13:54:03.198Z,16.85
2019-03-23T13:59:07.612Z,15.98
2019-03-23T14:04:13.538Z,15.60
2019-03-23T14:09:17.934Z,16.52
2019-03-23T14:14:22.151Z,22.77
2019-03-23T14:19:26.282Z,17.70
2019-03-23T14:24:30.431Z,15.45
2019-03-23T14:29:34.612Z,18.77
2019-03-23T14:34:38.963Z,21.07
2019-03-23T14:39:43.085Z,17.82
2019-03-23T14:44:49.028Z,17.00
2019-03-23T14:49:53.263Z,13.22
2019-03-23T14:54:57.363Z,16.48
2019-03-23T15:00:01.680Z,17.12
2019-03-23T15:05:08.021Z,14.55
2019-03-23T15:10:12.325Z,15.32
2019-03-23T15:15:17.368Z,17.50
2019-03-23T15:20:21.616Z,18.05
2019-03-23T15:25:26.692Z,11.48
2019-03-23T15:30:30.884Z,12.05
2019-03-23T15:35:35.252Z,11.73
2019-03-23T15:40:40.268Z,13.00
2019-03-23T15:45:45.959Z,13.65
2019-03-23T15:50:50.104Z,13.83
2019-03-23T15:55:54.366Z,14.93
2019-03-23T16:00:58.513Z,13.83
2019-03-23T16:06:02.641Z,12.33
2019-03-23T16:11:07.564Z,14.87
2019-03-23T16:16:11.645Z,21.23
2019-03-23T16:21:16.076Z,20.25
2019-03-23T16:26:21.215Z,24.12
2019-03-23T16:31:26.254Z,26.65
2019-03-23T16:41:34.420Z,28.85
2019-03-23T16:46:40.179Z,31.85
2019-03-23T16:51:44.362Z,34.60
2019-03-23T16:56:49.046Z,31.68
2019-03-23T17:01:54.277Z,33.70
2019-03-23T17:06:59.301Z,36.05
2019-03-23T17:12:03.660Z,37.65
2019-03-23T17:17:11.600Z,35.35
2019-03-23T17:22:16.580Z,38.33
2019-03-23T17:27:22.862Z,38.88
2019-03-23T17:32:27.105Z,37.27
2019-03-23T17:37:31.196Z,38.40
2019-03-23T17:42:37.236Z,38.17
2019-03-23T17:47:42.699Z,41.28
2019-03-23T17:52:47.912Z,36.95
2019-03-23T17:57:52.029Z,45.40
2019-03-23T18:02:56.933Z,54.18
2019-03-23T18:08:01.152Z,57.15
2019-03-23T18:13:15.960Z,57.83
2019-03-23T18:18:14.424Z,63.05
2019-03-23T18:23:19.365Z,68.70
2019-03-23T18:28:23.462Z,66.87
2019-03-23T18:33:29.760Z,66.15
2019-03-23T18:38:34.790Z,75.35
2019-03-23T18:43:39.731Z,70.95
2019-03-23T18:48:46.479Z,74.27
2019-03-23T18:53:52.794Z,74.73
2019-03-23T18:58:57.128Z,78.93
2019-03-23T19:04:01.969Z,72.05
2019-03-23T19:09:07.213Z,78.47
2019-03-23T19:14:12.355Z,72.67
2019-03-23T19:19:18.949Z,73.37
2019-03-23T19:24:24.349Z,81.02
2019-03-23T19:29:28.467Z,85.67
2019-03-23T19:34:32.677Z,87.45
2019-03-23T19:39:38.138Z,89.32
2019-03-23T19:44:42.622Z,85.60
2019-03-23T19:49:46.760Z,93.03
2019-03-23T19:54:51.232Z,86.05
2019-03-23T19:59:56.139Z,87.62
2019-03-23T20:05:00.418Z,87.57
2019-03-23T20:10:05.956Z,89.83
2019-03-23T20:15:10.905Z,85.85
2019-03-23T20:20:15.442Z,89.47
2019-03-23T20:25:20.656Z,81.35
2019-03-23T20:30:24.757Z,72.95
2019-03-23T20:35:30.249Z,77.22
2019-03-23T20:40:34.693Z,77.85
2019-03-23T20:45:39.044Z,57.45
2019-03-23T20:50:44.562Z,77.97
2019-03-23T20:55:48.712Z,89.85
2019-03-23T21:00:52.881Z,92.10
2019-03-23T21:05:57.956Z,108.12
2019-03-23T21:11:04.105Z,93.78
2019-03-23T21:16:09.440Z,117.53
2019-03-23T21:21:13.805Z,85.12
2019-03-23T21:26:19.612Z,120.80
2019-03-23T21:31:25.756Z,70.67
2019-03-23T21:36:30.730Z,85.93
2019-03-23T21:41:35.317Z,119.13
2019-03-23T21:46:40.913Z,121.53
2019-03-23T21:51:45.049Z,114.10
2019-03-23T21:56:49.998Z,52.95
2019-03-23T22:01:54.339Z,94.13
2019-03-23T22:06:58.924Z,77.22
2019-03-23T22:12:04.458Z,92.88
2019-03-23T22:17:10.058Z,93.82
2019-03-23T22:22:14.597Z,86.82
2019-03-23T22:27:19.273Z,65.75
2019-03-23T22:32:24.488Z,58.87
2019-03-23T22:37:30.615Z,44.95
2019-03-23T22:42:36.211Z,55.70
2019-03-23T22:47:40.405Z,60.00
2019-03-23T22:52:45.956Z,51.45
2019-03-23T22:57:50.345Z,51.85
2019-03-23T23:02:56.941Z,66.70
2019-03-23T23:08:01.717Z,80.22
2019-03-23T23:13:05.793Z,57.40
2019-03-23T23:18:11.160Z,60.95
2019-03-23T23:23:16.367Z,60.58
2019-03-23T23:28:21.394Z,35.60
2019-03-23T23:33:25.892Z,50.33
2019-03-23T23:38:31.828Z,57.15
2019-03-23T23:43:37.230Z,42.98
2019-03-23T23:48:50.860Z,54.33
2019-03-23T23:53:49.146Z,50.17
2019-03-23T23:58:54.150Z,32.83
